sensor_id;sensor_type;location;lat;lon;timestamp;temperature;humidity
45549;DHT22;31270;48.328;10.096;2022-09-27T00:01:38;10.70;99.90
45549;DHT22;31270;48.328;10.096;2022-09-27T00:04:03;10.60;99.90
45549;DHT22;31270;48.328;10.096;2022-09-27T00:06:31;10.50;99.90
45549;DHT22;31270;48.328;10.096;2022-09-27T00:08:57;10.50;99.90
45549;DHT22;31270;48.328;10.096;2022-09-27T00:11:26;10.50;99.90
45549;DHT22;31270;48.328;10.096;2022-09-27T00:13:54;10.40;99.90
45549;DHT22;31270;48.328;10.096;2022-09-27T00:16:21;10.50;99.90
45549;DHT22;31270;48.328;10.096;2022-09-27T00:18:47;10.40;99.90
45549;DHT22;31270;48.328;10.096;2022-09-27T00:21:13;10.40;99.90
45549;DHT22;31270;48.328;10.096;2022-09-27T00:23:39;10.40;99.90
45549;DHT22;31270;48.328;10.096;2022-09-27T00:26:06;10.40;99.90
45549;DHT22;31270;48.328;10.096;2022-09-27T00:28:33;10.40;99.90
45549;DHT22;31270;48.328;10.096;2022-09-27T00:30:59;10.30;99.90
45549;DHT22;31270;48.328;10.096;2022-09-27T00:33:25;10.30;99.90
45549;DHT22;31270;48.328;10.096;2022-09-27T00:35:51;10.20;99.90
45549;DHT22;31270;48.328;10.096;2022-09-27T00:38:17;10.20;99.90
45549;DHT22;31270;48.328;10.096;2022-09-27T00:40:43;10.20;99.90
45549;DHT22;31270;48.328;10.096;2022-09-27T00:43:19;10.20;99.90
45549;DHT22;31270;48.328;10.096;2022-09-27T00:46:00;10.10;99.90
45549;DHT22;31270;48.328;10.096;2022-09-27T00:48:30;10.10;99.90
45549;DHT22;31270;48.328;10.096;2022-09-27T00:51:01;10.00;99.90
45549;DHT22;31270;48.328;10.096;2022-09-27T00:53:36;10.00;99.90
45549;DHT22;31270;48.328;10.096;2022-09-27T00:56:21;9.90;99.90
45549;DHT22;31270;48.328;10.096;2022-09-27T00:58:56;9.90;99.90
45549;DHT22;31270;48.328;10.096;2022-09-27T01:01:23;9.80;99.90
45549;DHT22;31270;48.328;10.096;2022-09-27T01:04:09;9.80;99.90
45549;DHT22;31270;48.328;10.096;2022-09-27T01:06:36;9.80;99.90
45549;DHT22;31270;48.328;10.096;2022-09-27T01:09:04;9.70;99.90
45549;DHT22;31270;48.328;10.096;2022-09-27T01:11:54;9.70;99.90
45549;DHT22;31270;48.328;10.096;2022-09-27T01:14:59;9.70;99.90
45549;DHT22;31270;48.328;10.096;2022-09-27T01:17:48;9.70;99.90
45549;DHT22;31270;48.328;10.096;2022-09-27T01:38:07;9.50;99.90
45549;DHT22;31270;48.328;10.096;2022-09-27T01:40:36;9.40;99.90
45549;DHT22;31270;48.328;10.096;2022-09-27T01:43:07;9.40;99.90
45549;DHT22;31270;48.328;10.096;2022-09-27T01:48:16;9.40;99.90
45549;DHT22;31270;48.328;10.096;2022-09-27T01:53:29;9.40;99.90
45549;DHT22;31270;48.328;10.096;2022-09-27T01:55:57;9.40;99.90
45549;DHT22;31270;48.328;10.096;2022-09-27T01:58:37;9.40;99.90
45549;DHT22;31270;48.328;10.096;2022-09-27T02:01:06;9.40;99.90
45549;DHT22;31270;48.328;10.096;2022-09-27T02:03:36;9.40;99.90
45549;DHT22;31270;48.328;10.096;2022-09-27T02:06:20;9.40;99.90
45549;DHT22;31270;48.328;10.096;2022-09-27T02:08:54;9.40;99.90
45549;DHT22;31270;48.328;10.096;2022-09-27T02:11:22;9.40;99.90
45549;DHT22;31270;48.328;10.096;2022-09-27T02:13:57;9.40;99.90
45549;DHT22;31270;48.328;10.096;2022-09-27T02:21:57;9.40;99.90
45549;DHT22;31270;48.328;10.096;2022-09-27T02:27:33;9.40;99.90
45549;DHT22;31270;48.328;10.096;2022-09-27T02:30:12;9.40;99.90
45549;DHT22;31270;48.328;10.096;2022-09-27T02:32:40;9.40;99.90
45549;DHT22;31270;48.328;10.096;2022-09-27T02:37:37;9.40;99.90
45549;DHT22;31270;48.328;10.096;2022-09-27T02:40:03;9.40;99.90
45549;DHT22;31270;48.328;10.096;2022-09-27T02:42:30;9.40;99.90
45549;DHT22;31270;48.328;10.096;2022-09-27T02:44:57;9.40;99.90
45549;DHT22;31270;48.328;10.096;2022-09-27T03:01:22;9.50;99.90
45549;DHT22;31270;48.328;10.096;2022-09-27T03:06:25;9.50;99.90
45549;DHT22;31270;48.328;10.096;2022-09-27T03:08:51;9.50;99.90
45549;DHT22;31270;48.328;10.096;2022-09-27T03:11:17;9.40;99.90
45549;DHT22;31270;48.328;10.096;2022-09-27T03:13:43;9.50;99.90
45549;DHT22;31270;48.328;10.096;2022-09-27T03:16:09;9.50;99.90
45549;DHT22;31270;48.328;10.096;2022-09-27T03:18:36;9.50;99.90
45549;DHT22;31270;48.328;10.096;2022-09-27T03:21:01;9.50;99.90
45549;DHT22;31270;48.328;10.096;2022-09-27T03:23:27;9.50;99.90
45549;DHT22;31270;48.328;10.096;2022-09-27T03:25:53;9.50;99.90
45549;DHT22;31270;48.328;10.096;2022-09-27T03:28:19;9.40;99.90
45549;DHT22;31270;48.328;10.096;2022-09-27T03:30:45;9.50;99.90
45549;DHT22;31270;48.328;10.096;2022-09-27T03:33:11;9.50;99.90
45549;DHT22;31270;48.328;10.096;2022-09-27T03:35:37;9.50;99.90
45549;DHT22;31270;48.328;10.096;2022-09-27T03:38:03;9.50;99.90
45549;DHT22;31270;48.328;10.096;2022-09-27T03:40:29;9.50;99.90
45549;DHT22;31270;48.328;10.096;2022-09-27T03:42:54;9.50;99.90
45549;DHT22;31270;48.328;10.096;2022-09-27T03:45:20;9.50;99.90
45549;DHT22;31270;48.328;10.096;2022-09-27T03:47:46;9.60;99.90
45549;DHT22;31270;48.328;10.096;2022-09-27T03:50:13;9.50;99.90
45549;DHT22;31270;48.328;10.096;2022-09-27T03:52:38;9.60;99.90
45549;DHT22;31270;48.328;10.096;2022-09-27T03:55:05;9.50;99.90
45549;DHT22;31270;48.328;10.096;2022-09-27T03:57:31;9.60;99.90
45549;DHT22;31270;48.328;10.096;2022-09-27T03:59:57;9.60;99.90
45549;DHT22;31270;48.328;10.096;2022-09-27T04:02:24;9.60;99.90
45549;DHT22;31270;48.328;10.096;2022-09-27T04:04:50;9.60;99.90
45549;DHT22;31270;48.328;10.096;2022-09-27T04:07:15;9.60;99.90
45549;DHT22;31270;48.328;10.096;2022-09-27T04:09:42;9.60;99.90
45549;DHT22;31270;48.328;10.096;2022-09-27T04:12:09;9.60;99.90
45549;DHT22;31270;48.328;10.096;2022-09-27T04:14:34;9.70;99.90
45549;DHT22;31270;48.328;10.096;2022-09-27T04:17:00;9.70;99.90
45549;DHT22;31270;48.328;10.096;2022-09-27T04:19:26;9.60;99.90
45549;DHT22;31270;48.328;10.096;2022-09-27T04:21:52;9.60;99.90
45549;DHT22;31270;48.328;10.096;2022-09-27T04:24:18;9.60;99.90
45549;DHT22;31270;48.328;10.096;2022-09-27T04:26:43;9.60;99.90
45549;DHT22;31270;48.328;10.096;2022-09-27T04:29:09;9.60;99.90
45549;DHT22;31270;48.328;10.096;2022-09-27T04:31:35;9.50;99.90
45549;DHT22;31270;48.328;10.096;2022-09-27T04:34:03;9.40;99.90
45549;DHT22;31270;48.328;10.096;2022-09-27T04:36:29;9.40;99.90
45549;DHT22;31270;48.328;10.096;2022-09-27T04:39:06;9.40;99.90
45549;DHT22;31270;48.328;10.096;2022-09-27T04:41:32;9.30;99.90
45549;DHT22;31270;48.328;10.096;2022-09-27T04:43:58;9.30;99.90
45549;DHT22;31270;48.328;10.096;2022-09-27T04:46:26;9.20;99.90
45549;DHT22;31270;48.328;10.096;2022-09-27T04:48:56;9.10;99.90
45549;DHT22;31270;48.328;10.096;2022-09-27T04:51:22;9.10;99.90
45549;DHT22;31270;48.328;10.096;2022-09-27T04:53:48;9.10;99.90
45549;DHT22;31270;48.328;10.096;2022-09-27T04:56:13;9.10;99.90
45549;DHT22;31270;48.328;10.096;2022-09-27T04:58:40;9.00;99.90
45549;DHT22;31270;48.328;10.096;2022-09-27T05:01:06;9.00;99.90
45549;DHT22;31270;48.328;10.096;2022-09-27T05:03:33;8.90;99.90
45549;DHT22;31270;48.328;10.096;2022-09-27T05:05:59;8.90;99.90
45549;DHT22;31270;48.328;10.096;2022-09-27T05:08:26;8.80;99.90
45549;DHT22;31270;48.328;10.096;2022-09-27T05:10:51;8.90;99.90
45549;DHT22;31270;48.328;10.096;2022-09-27T05:13:17;8.90;99.90
45549;DHT22;31270;48.328;10.096;2022-09-27T05:15:43;8.80;99.90
45549;DHT22;31270;48.328;10.096;2022-09-27T05:18:09;8.80;99.90
45549;DHT22;31270;48.328;10.096;2022-09-27T05:20:35;8.70;99.90
45549;DHT22;31270;48.328;10.096;2022-09-27T05:23:02;8.70;99.90
45549;DHT22;31270;48.328;10.096;2022-09-27T05:25:30;8.70;99.90
45549;DHT22;31270;48.328;10.096;2022-09-27T05:27:56;8.80;99.90
45549;DHT22;31270;48.328;10.096;2022-09-27T05:30:23;8.70;99.90
45549;DHT22;31270;48.328;10.096;2022-09-27T05:32:49;8.70;99.90
45549;DHT22;31270;48.328;10.096;2022-09-27T05:35:15;8.70;99.90
45549;DHT22;31270;48.328;10.096;2022-09-27T05:37:49;8.70;99.90
45549;DHT22;31270;48.328;10.096;2022-09-27T05:40:15;8.70;99.90
45549;DHT22;31270;48.328;10.096;2022-09-27T05:42:40;8.70;99.90
45549;DHT22;31270;48.328;10.096;2022-09-27T05:45:06;8.80;99.90
45549;DHT22;31270;48.328;10.096;2022-09-27T05:47:32;8.80;99.90
45549;DHT22;31270;48.328;10.096;2022-09-27T05:49:57;8.90;99.90
45549;DHT22;31270;48.328;10.096;2022-09-27T05:52:23;9.00;99.90
45549;DHT22;31270;48.328;10.096;2022-09-27T05:54:49;9.20;99.90
45549;DHT22;31270;48.328;10.096;2022-09-27T05:57:14;9.20;99.90
45549;DHT22;31270;48.328;10.096;2022-09-27T05:59:40;9.20;99.90
45549;DHT22;31270;48.328;10.096;2022-09-27T06:02:08;9.20;99.90
45549;DHT22;31270;48.328;10.096;2022-09-27T06:04:33;9.10;99.90
45549;DHT22;31270;48.328;10.096;2022-09-27T06:06:59;9.10;99.90
45549;DHT22;31270;48.328;10.096;2022-09-27T06:09:24;9.10;99.90
45549;DHT22;31270;48.328;10.096;2022-09-27T06:11:52;9.10;99.90
45549;DHT22;31270;48.328;10.096;2022-09-27T06:14:18;9.10;99.90
45549;DHT22;31270;48.328;10.096;2022-09-27T06:16:43;9.10;99.90
45549;DHT22;31270;48.328;10.096;2022-09-27T06:19:10;9.00;99.90
45549;DHT22;31270;48.328;10.096;2022-09-27T06:21:36;9.00;99.90
45549;DHT22;31270;48.328;10.096;2022-09-27T06:24:02;8.90;99.90
45549;DHT22;31270;48.328;10.096;2022-09-27T06:26:27;8.90;99.90
45549;DHT22;31270;48.328;10.096;2022-09-27T06:28:53;8.80;99.90
45549;DHT22;31270;48.328;10.096;2022-09-27T06:31:19;8.80;99.90
45549;DHT22;31270;48.328;10.096;2022-09-27T06:33:46;8.80;99.90
45549;DHT22;31270;48.328;10.096;2022-09-27T06:36:12;8.70;99.90
45549;DHT22;31270;48.328;10.096;2022-09-27T06:38:37;8.70;99.90
45549;DHT22;31270;48.328;10.096;2022-09-27T06:41:04;8.70;99.90
45549;DHT22;31270;48.328;10.096;2022-09-27T06:43:31;8.70;99.90
45549;DHT22;31270;48.328;10.096;2022-09-27T06:46:02;8.70;99.90
45549;DHT22;31270;48.328;10.096;2022-09-27T06:48:32;8.70;99.90
45549;DHT22;31270;48.328;10.096;2022-09-27T06:50:58;8.70;99.90
45549;DHT22;31270;48.328;10.096;2022-09-27T06:53:24;8.70;99.90
45549;DHT22;31270;48.328;10.096;2022-09-27T06:56:09;8.80;99.90
45549;DHT22;31270;48.328;10.096;2022-09-27T06:58:38;8.80;99.90
45549;DHT22;31270;48.328;10.096;2022-09-27T07:01:26;8.80;99.90
45549;DHT22;31270;48.328;10.096;2022-09-27T07:03:52;9.00;99.90
45549;DHT22;31270;48.328;10.096;2022-09-27T07:06:20;9.10;99.90
45549;DHT22;31270;48.328;10.096;2022-09-27T07:08:53;9.10;99.90
45549;DHT22;31270;48.328;10.096;2022-09-27T07:11:19;9.10;99.90
45549;DHT22;31270;48.328;10.096;2022-09-27T07:13:48;9.00;99.90
45549;DHT22;31270;48.328;10.096;2022-09-27T07:16:14;8.80;99.90
45549;DHT22;31270;48.328;10.096;2022-09-27T07:18:40;8.90;99.90
45549;DHT22;31270;48.328;10.096;2022-09-27T07:21:06;8.80;99.90
45549;DHT22;31270;48.328;10.096;2022-09-27T07:23:33;8.80;99.90
45549;DHT22;31270;48.328;10.096;2022-09-27T07:26:01;9.00;99.90
45549;DHT22;31270;48.328;10.096;2022-09-27T07:28:28;8.90;99.90
45549;DHT22;31270;48.328;10.096;2022-09-27T07:30:54;9.00;99.90
45549;DHT22;31270;48.328;10.096;2022-09-27T07:33:21;9.10;99.90
45549;DHT22;31270;48.328;10.096;2022-09-27T07:35:46;9.20;99.90
45549;DHT22;31270;48.328;10.096;2022-09-27T07:38:12;9.40;99.90
45549;DHT22;31270;48.328;10.096;2022-09-27T07:40:39;9.70;99.90
45549;DHT22;31270;48.328;10.096;2022-09-27T07:43:06;9.80;99.90
45549;DHT22;31270;48.328;10.096;2022-09-27T07:45:34;10.10;99.90
45549;DHT22;31270;48.328;10.096;2022-09-27T07:48:02;10.20;99.90
45549;DHT22;31270;48.328;10.096;2022-09-27T07:50:28;10.40;99.90
45549;DHT22;31270;48.328;10.096;2022-09-27T07:52:54;10.40;99.90
45549;DHT22;31270;48.328;10.096;2022-09-27T07:55:21;10.40;99.90
45549;DHT22;31270;48.328;10.096;2022-09-27T07:57:48;10.50;99.90
45549;DHT22;31270;48.328;10.096;2022-09-27T08:00:16;10.60;99.90
45549;DHT22;31270;48.328;10.096;2022-09-27T08:02:42;10.80;99.90
45549;DHT22;31270;48.328;10.096;2022-09-27T08:05:10;10.80;99.90
45549;DHT22;31270;48.328;10.096;2022-09-27T08:07:36;10.80;99.90
45549;DHT22;31270;48.328;10.096;2022-09-27T08:10:04;10.70;99.90
45549;DHT22;31270;48.328;10.096;2022-09-27T08:12:30;10.60;99.90
45549;DHT22;31270;48.328;10.096;2022-09-27T08:14:56;10.50;99.90
45549;DHT22;31270;48.328;10.096;2022-09-27T08:17:28;10.60;99.90
45549;DHT22;31270;48.328;10.096;2022-09-27T08:19:54;10.70;99.90
45549;DHT22;31270;48.328;10.096;2022-09-27T08:22:21;10.80;99.90
45549;DHT22;31270;48.328;10.096;2022-09-27T08:24:47;10.90;99.90
45549;DHT22;31270;48.328;10.096;2022-09-27T08:27:14;11.00;99.90
45549;DHT22;31270;48.328;10.096;2022-09-27T08:29:39;11.10;99.90
45549;DHT22;31270;48.328;10.096;2022-09-27T08:32:09;11.00;99.90
45549;DHT22;31270;48.328;10.096;2022-09-27T08:34:36;10.90;99.90
45549;DHT22;31270;48.328;10.096;2022-09-27T08:37:02;10.90;99.90
45549;DHT22;31270;48.328;10.096;2022-09-27T08:39:27;10.70;99.90
45549;DHT22;31270;48.328;10.096;2022-09-27T08:45:21;10.80;99.90
45549;DHT22;31270;48.328;10.096;2022-09-27T08:47:59;10.90;99.90
45549;DHT22;31270;48.328;10.096;2022-09-27T08:50:34;11.00;99.90
45549;DHT22;31270;48.328;10.096;2022-09-27T08:53:26;10.90;99.90
45549;DHT22;31270;48.328;10.096;2022-09-27T08:55:54;10.90;99.90
45549;DHT22;31270;48.328;10.096;2022-09-27T08:58:28;10.90;99.90
45549;DHT22;31270;48.328;10.096;2022-09-27T09:00:57;10.90;99.90
45549;DHT22;31270;48.328;10.096;2022-09-27T09:03:27;11.00;99.90
45549;DHT22;31270;48.328;10.096;2022-09-27T09:09:07;10.90;99.90
45549;DHT22;31270;48.328;10.096;2022-09-27T09:15:11;10.90;99.90
45549;DHT22;31270;48.328;10.096;2022-09-27T09:20:46;10.70;99.90
45549;DHT22;31270;48.328;10.096;2022-09-27T09:23:17;10.80;99.90
45549;DHT22;31270;48.328;10.096;2022-09-27T09:29:03;10.80;99.90
45549;DHT22;31270;48.328;10.096;2022-09-27T09:31:41;10.80;99.90
45549;DHT22;31270;48.328;10.096;2022-09-27T09:34:29;10.80;99.90
45549;DHT22;31270;48.328;10.096;2022-09-27T09:38:02;10.90;99.90
45549;DHT22;31270;48.328;10.096;2022-09-27T09:40:00;11.00;99.90
45549;DHT22;31270;48.328;10.096;2022-09-27T09:42:32;10.90;99.90
45549;DHT22;31270;48.328;10.096;2022-09-27T09:50:21;10.90;99.90
45549;DHT22;31270;48.328;10.096;2022-09-27T09:52:52;11.00;99.90
45549;DHT22;31270;48.328;10.096;2022-09-27T09:55:22;11.30;99.90
45549;DHT22;31270;48.328;10.096;2022-09-27T10:00:39;11.40;99.90
45549;DHT22;31270;48.328;10.096;2022-09-27T10:03:07;11.20;99.90
45549;DHT22;31270;48.328;10.096;2022-09-27T10:05:33;11.00;99.90
45549;DHT22;31270;48.328;10.096;2022-09-27T10:08:01;10.80;99.90
45549;DHT22;31270;48.328;10.096;2022-09-27T10:10:29;10.70;99.90
45549;DHT22;31270;48.328;10.096;2022-09-27T10:12:56;10.60;99.90
45549;DHT22;31270;48.328;10.096;2022-09-27T10:15:23;10.70;99.90
45549;DHT22;31270;48.328;10.096;2022-09-27T10:17:53;10.80;99.90
45549;DHT22;31270;48.328;10.096;2022-09-27T10:20:37;10.90;99.90
45549;DHT22;31270;48.328;10.096;2022-09-27T10:23:14;10.90;99.90
45549;DHT22;31270;48.328;10.096;2022-09-27T10:25:55;10.80;99.90
45549;DHT22;31270;48.328;10.096;2022-09-27T10:31:00;10.80;99.90
45549;DHT22;31270;48.328;10.096;2022-09-27T10:33:28;10.80;99.90
45549;DHT22;31270;48.328;10.096;2022-09-27T10:35:54;10.90;99.90
45549;DHT22;31270;48.328;10.096;2022-09-27T10:38:32;11.00;99.90
45549;DHT22;31270;48.328;10.096;2022-09-27T10:41:34;11.20;99.90
45549;DHT22;31270;48.328;10.096;2022-09-27T10:46:46;11.20;99.90
45549;DHT22;31270;48.328;10.096;2022-09-27T10:51:45;11.30;99.90
45549;DHT22;31270;48.328;10.096;2022-09-27T10:54:34;11.40;99.90
45549;DHT22;31270;48.328;10.096;2022-09-27T10:57:03;11.30;99.90
45549;DHT22;31270;48.328;10.096;2022-09-27T10:59:33;11.30;99.90
45549;DHT22;31270;48.328;10.096;2022-09-27T11:02:00;11.40;99.90
45549;DHT22;31270;48.328;10.096;2022-09-27T11:04:34;11.50;99.90
45549;DHT22;31270;48.328;10.096;2022-09-27T11:07:12;11.70;99.90
45549;DHT22;31270;48.328;10.096;2022-09-27T11:09:56;11.90;99.90
45549;DHT22;31270;48.328;10.096;2022-09-27T11:12:28;12.40;99.90
45549;DHT22;31270;48.328;10.096;2022-09-27T11:14:58;12.60;99.90
45549;DHT22;31270;48.328;10.096;2022-09-27T11:31:07;13.50;99.90
45549;DHT22;31270;48.328;10.096;2022-09-27T11:36:55;13.20;99.90
45549;DHT22;31270;48.328;10.096;2022-09-27T11:39:24;13.00;99.90
45549;DHT22;31270;48.328;10.096;2022-09-27T11:45:24;13.30;99.90
45549;DHT22;31270;48.328;10.096;2022-09-27T11:48:10;13.40;99.90
45549;DHT22;31270;48.328;10.096;2022-09-27T12:02:29;12.70;99.90
45549;DHT22;31270;48.328;10.096;2022-09-27T12:05:20;12.90;99.90
45549;DHT22;31270;48.328;10.096;2022-09-27T12:08:11;13.10;99.90
45549;DHT22;31270;48.328;10.096;2022-09-27T12:10:47;13.70;99.90
45549;DHT22;31270;48.328;10.096;2022-09-27T12:13:14;14.30;99.90
45549;DHT22;31270;48.328;10.096;2022-09-27T12:15:44;14.70;99.90
45549;DHT22;31270;48.328;10.096;2022-09-27T12:18:20;15.00;99.90
45549;DHT22;31270;48.328;10.096;2022-09-27T12:20:49;15.00;99.90
45549;DHT22;31270;48.328;10.096;2022-09-27T12:23:21;14.80;99.90
45549;DHT22;31270;48.328;10.096;2022-09-27T12:25:51;14.60;99.90
45549;DHT22;31270;48.328;10.096;2022-09-27T12:28:49;14.40;99.90
45549;DHT22;31270;48.328;10.096;2022-09-27T12:31:43;14.10;99.90
45549;DHT22;31270;48.328;10.096;2022-09-27T12:34:19;14.20;99.90
45549;DHT22;31270;48.328;10.096;2022-09-27T12:36:58;14.50;99.90
45549;DHT22;31270;48.328;10.096;2022-09-27T12:39:28;14.50;99.90
45549;DHT22;31270;48.328;10.096;2022-09-27T12:42:04;14.20;99.90
45549;DHT22;31270;48.328;10.096;2022-09-27T12:44:38;14.10;99.90
45549;DHT22;31270;48.328;10.096;2022-09-27T12:47:10;13.90;99.90
45549;DHT22;31270;48.328;10.096;2022-09-27T12:52:38;14.10;99.90
45549;DHT22;31270;48.328;10.096;2022-09-27T12:58:27;14.10;99.90
45549;DHT22;31270;48.328;10.096;2022-09-27T13:14:55;13.60;99.90
45549;DHT22;31270;48.328;10.096;2022-09-27T13:17:47;13.60;99.90
45549;DHT22;31270;48.328;10.096;2022-09-27T13:25:53;13.10;99.90
45549;DHT22;31270;48.328;10.096;2022-09-27T13:31:14;13.00;99.90
45549;DHT22;31270;48.328;10.096;2022-09-27T13:33:50;13.10;99.90
45549;DHT22;31270;48.328;10.096;2022-09-27T13:41:19;13.20;99.90
45549;DHT22;31270;48.328;10.096;2022-09-27T13:43:55;13.10;99.90
45549;DHT22;31270;48.328;10.096;2022-09-27T13:46:25;13.10;99.90
45549;DHT22;31270;48.328;10.096;2022-09-27T13:48:57;13.00;99.90
45549;DHT22;31270;48.328;10.096;2022-09-27T13:51:34;12.90;99.90
45549;DHT22;31270;48.328;10.096;2022-09-27T13:54:03;12.90;99.90
45549;DHT22;31270;48.328;10.096;2022-09-27T13:59:16;12.70;99.90
45549;DHT22;31270;48.328;10.096;2022-09-27T14:02:09;12.60;99.90
45549;DHT22;31270;48.328;10.096;2022-09-27T14:04:50;12.50;99.90
45549;DHT22;31270;48.328;10.096;2022-09-27T14:07:20;12.30;99.90
45549;DHT22;31270;48.328;10.096;2022-09-27T14:09:50;12.10;99.90
45549;DHT22;31270;48.328;10.096;2022-09-27T14:12:19;12.10;99.90
45549;DHT22;31270;48.328;10.096;2022-09-27T14:14:47;12.00;99.90
45549;DHT22;31270;48.328;10.096;2022-09-27T14:17:14;11.90;99.90
45549;DHT22;31270;48.328;10.096;2022-09-27T14:19:41;11.70;99.90
45549;DHT22;31270;48.328;10.096;2022-09-27T14:22:16;11.60;99.90
45549;DHT22;31270;48.328;10.096;2022-09-27T14:24:49;11.50;99.90
45549;DHT22;31270;48.328;10.096;2022-09-27T14:27:28;11.40;99.90
45549;DHT22;31270;48.328;10.096;2022-09-27T14:29:59;11.30;99.90
45549;DHT22;31270;48.328;10.096;2022-09-27T14:32:30;11.20;99.90
45549;DHT22;31270;48.328;10.096;2022-09-27T14:38:20;11.30;99.90
45549;DHT22;31270;48.328;10.096;2022-09-27T14:43:19;11.20;99.90
45549;DHT22;31270;48.328;10.096;2022-09-27T14:45:47;11.30;99.90
45549;DHT22;31270;48.328;10.096;2022-09-27T14:48:30;11.30;99.90
45549;DHT22;31270;48.328;10.096;2022-09-27T14:56:06;11.10;99.90
45549;DHT22;31270;48.328;10.096;2022-09-27T14:58:34;11.20;99.90
45549;DHT22;31270;48.328;10.096;2022-09-27T15:01:00;11.20;99.90
45549;DHT22;31270;48.328;10.096;2022-09-27T15:03:30;11.20;99.90
45549;DHT22;31270;48.328;10.096;2022-09-27T15:06:00;11.10;99.90
45549;DHT22;31270;48.328;10.096;2022-09-27T15:08:29;11.10;99.90
45549;DHT22;31270;48.328;10.096;2022-09-27T15:10:57;11.10;99.90
45549;DHT22;31270;48.328;10.096;2022-09-27T15:13:24;11.10;99.90
45549;DHT22;31270;48.328;10.096;2022-09-27T15:15:52;10.90;99.90
45549;DHT22;31270;48.328;10.096;2022-09-27T15:20:53;10.70;99.90
45549;DHT22;31270;48.328;10.096;2022-09-27T15:23:30;10.60;99.90
45549;DHT22;31270;48.328;10.096;2022-09-27T15:26:07;10.70;99.90
45549;DHT22;31270;48.328;10.096;2022-09-27T15:28:35;10.50;99.90
45549;DHT22;31270;48.328;10.096;2022-09-27T15:31:04;10.40;99.90
45549;DHT22;31270;48.328;10.096;2022-09-27T15:33:32;10.30;99.90
45549;DHT22;31270;48.328;10.096;2022-09-27T15:36:01;10.20;99.90
45549;DHT22;31270;48.328;10.096;2022-09-27T15:38:42;10.10;99.90
45549;DHT22;31270;48.328;10.096;2022-09-27T15:41:15;10.00;99.90
45549;DHT22;31270;48.328;10.096;2022-09-27T15:43:47;10.00;99.90
45549;DHT22;31270;48.328;10.096;2022-09-27T15:46:35;9.90;99.90
45549;DHT22;31270;48.328;10.096;2022-09-27T15:49:18;9.80;99.90
45549;DHT22;31270;48.328;10.096;2022-09-27T15:51:48;9.80;99.90
45549;DHT22;31270;48.328;10.096;2022-09-27T15:54:20;9.80;99.90
45549;DHT22;31270;48.328;10.096;2022-09-27T15:56:50;9.70;99.90
45549;DHT22;31270;48.328;10.096;2022-09-27T15:59:20;9.60;99.90
45549;DHT22;31270;48.328;10.096;2022-09-27T16:01:47;9.50;99.90
45549;DHT22;31270;48.328;10.096;2022-09-27T16:04:12;9.40;99.90
45549;DHT22;31270;48.328;10.096;2022-09-27T16:06:38;9.50;99.90
45549;DHT22;31270;48.328;10.096;2022-09-27T16:09:13;9.40;99.90
45549;DHT22;31270;48.328;10.096;2022-09-27T16:11:41;9.30;99.90
45549;DHT22;31270;48.328;10.096;2022-09-27T16:14:06;9.40;99.90
45549;DHT22;31270;48.328;10.096;2022-09-27T16:16:32;9.40;99.90
45549;DHT22;31270;48.328;10.096;2022-09-27T16:18:58;9.40;99.90
45549;DHT22;31270;48.328;10.096;2022-09-27T16:21:24;9.30;99.90
45549;DHT22;31270;48.328;10.096;2022-09-27T16:23:49;9.30;99.90
45549;DHT22;31270;48.328;10.096;2022-09-27T16:26:15;9.30;99.90
45549;DHT22;31270;48.328;10.096;2022-09-27T16:28:40;9.30;99.90
45549;DHT22;31270;48.328;10.096;2022-09-27T16:31:06;9.20;99.90
45549;DHT22;31270;48.328;10.096;2022-09-27T16:33:32;9.10;99.90
45549;DHT22;31270;48.328;10.096;2022-09-27T16:35:59;9.10;99.90
45549;DHT22;31270;48.328;10.096;2022-09-27T16:38:28;9.10;99.90
45549;DHT22;31270;48.328;10.096;2022-09-27T16:40:59;8.90;99.90
45549;DHT22;31270;48.328;10.096;2022-09-27T16:43:26;8.90;99.90
45549;DHT22;31270;48.328;10.096;2022-09-27T16:45:52;8.80;99.90
45549;DHT22;31270;48.328;10.096;2022-09-27T16:48:17;8.80;99.90
45549;DHT22;31270;48.328;10.096;2022-09-27T16:50:43;8.70;99.90
45549;DHT22;31270;48.328;10.096;2022-09-27T16:53:27;8.70;99.90
45549;DHT22;31270;48.328;10.096;2022-09-27T16:55:57;8.70;99.90
45549;DHT22;31270;48.328;10.096;2022-09-27T16:58:22;8.60;99.90
45549;DHT22;31270;48.328;10.096;2022-09-27T17:00:48;8.60;99.90
45549;DHT22;31270;48.328;10.096;2022-09-27T17:03:13;8.60;99.90
45549;DHT22;31270;48.328;10.096;2022-09-27T17:05:39;8.60;99.90
45549;DHT22;31270;48.328;10.096;2022-09-27T17:08:05;8.60;99.90
45549;DHT22;31270;48.328;10.096;2022-09-27T17:10:30;8.50;99.90
45549;DHT22;31270;48.328;10.096;2022-09-27T17:12:56;8.50;99.90
45549;DHT22;31270;48.328;10.096;2022-09-27T17:15:22;8.50;99.90
45549;DHT22;31270;48.328;10.096;2022-09-27T17:17:49;8.50;99.90
45549;DHT22;31270;48.328;10.096;2022-09-27T17:20:14;8.40;99.90
45549;DHT22;31270;48.328;10.096;2022-09-27T17:22:40;8.40;99.90
45549;DHT22;31270;48.328;10.096;2022-09-27T17:25:06;8.40;99.90
45549;DHT22;31270;48.328;10.096;2022-09-27T17:27:31;8.30;99.90
45549;DHT22;31270;48.328;10.096;2022-09-27T17:29:57;8.40;99.90
45549;DHT22;31270;48.328;10.096;2022-09-27T17:32:23;8.40;99.90
45549;DHT22;31270;48.328;10.096;2022-09-27T17:34:51;8.40;99.90
45549;DHT22;31270;48.328;10.096;2022-09-27T17:37:18;8.40;99.90
45549;DHT22;31270;48.328;10.096;2022-09-27T17:39:43;8.30;99.90
45549;DHT22;31270;48.328;10.096;2022-09-27T17:42:09;8.40;99.90
45549;DHT22;31270;48.328;10.096;2022-09-27T17:44:35;8.40;99.90
45549;DHT22;31270;48.328;10.096;2022-09-27T17:47:02;8.40;99.90
45549;DHT22;31270;48.328;10.096;2022-09-27T17:49:46;8.40;99.90
45549;DHT22;31270;48.328;10.096;2022-09-27T17:52:30;8.40;99.90
45549;DHT22;31270;48.328;10.096;2022-09-27T17:54:58;8.50;99.90
45549;DHT22;31270;48.328;10.096;2022-09-27T17:57:25;8.50;99.90
45549;DHT22;31270;48.328;10.096;2022-09-27T17:59:51;8.50;99.90
45549;DHT22;31270;48.328;10.096;2022-09-27T18:02:18;8.50;99.90
45549;DHT22;31270;48.328;10.096;2022-09-27T18:04:44;8.60;99.90
45549;DHT22;31270;48.328;10.096;2022-09-27T18:07:10;8.60;99.90
45549;DHT22;31270;48.328;10.096;2022-09-27T18:09:37;8.70;99.90
45549;DHT22;31270;48.328;10.096;2022-09-27T18:12:03;8.70;99.90
45549;DHT22;31270;48.328;10.096;2022-09-27T18:14:29;8.70;99.90
45549;DHT22;31270;48.328;10.096;2022-09-27T18:16:54;8.70;99.90
45549;DHT22;31270;48.328;10.096;2022-09-27T18:19:21;8.70;99.90
45549;DHT22;31270;48.328;10.096;2022-09-27T18:21:48;8.70;99.90
45549;DHT22;31270;48.328;10.096;2022-09-27T18:24:15;8.70;99.90
45549;DHT22;31270;48.328;10.096;2022-09-27T18:26:41;8.70;99.90